createdAt,value
2023-01-18T04:01:44.812Z,3.73
2023-01-18T04:04:13.773Z,4.90
2023-01-18T04:06:42.376Z,3.43
2023-01-18T04:09:12.781Z,2.73
2023-01-18T04:11:40.651Z,3.97
2023-01-18T04:14:08.500Z,3.73
2023-01-18T04:16:36.355Z,2.57
2023-01-18T04:19:07.256Z,3.80
2023-01-18T04:21:35.347Z,4.47
2023-01-18T04:24:03.259Z,3.00
2023-01-18T04:26:31.124Z,2.87
2023-01-18T04:28:58.927Z,3.57
2023-01-18T04:31:26.951Z,3.50
2023-01-18T04:33:54.815Z,2.00
2023-01-18T04:36:24.040Z,4.90
2023-01-18T04:38:54.740Z,2.93
2023-01-18T04:41:26.479Z,3.00
2023-01-18T04:43:54.359Z,2.83
2023-01-18T04:46:22.294Z,4.57
2023-01-18T04:48:51.547Z,4.03
2023-01-18T04:51:23.871Z,5.90
2023-01-18T04:53:53.093Z,2.40
2023-01-18T04:56:21.115Z,5.50
2023-01-18T04:58:48.951Z,3.43
2023-01-18T05:01:17.033Z,3.70
2023-01-18T05:03:45.082Z,4.03
2023-01-18T05:06:20.617Z,4.10
2023-01-18T05:08:48.479Z,4.47
2023-01-18T05:11:19.395Z,3.73
2023-01-18T05:13:47.507Z,2.47
2023-01-18T05:16:17.327Z,3.87
2023-01-18T05:18:45.515Z,2.77
2023-01-18T05:21:13.826Z,4.67
2023-01-18T05:23:41.989Z,4.77
2023-01-18T05:26:16.004Z,3.70
2023-01-18T05:28:45.874Z,4.43
2023-01-18T05:31:14.494Z,5.33
2023-01-18T05:33:42.647Z,3.07
2023-01-18T05:36:10.643Z,4.40
2023-01-18T05:38:38.482Z,6.13
2023-01-18T05:41:06.684Z,6.57
2023-01-18T05:43:38.189Z,7.67
2023-01-18T05:46:07.648Z,7.33
2023-01-18T05:48:35.621Z,9.80
2023-01-18T05:51:08.823Z,5.73
2023-01-18T05:53:37.015Z,3.70
2023-01-18T05:56:07.222Z,7.00
2023-01-18T05:58:38.300Z,6.50
2023-01-18T06:01:08.512Z,5.87
2023-01-18T06:03:36.959Z,5.73
2023-01-18T06:06:05.000Z,4.67
2023-01-18T06:08:33.814Z,4.07
2023-01-18T06:11:02.446Z,5.50
2023-01-18T06:13:31.807Z,5.13
2023-01-18T06:16:00.944Z,6.00
2023-01-18T06:18:32.697Z,3.23
2023-01-18T06:21:01.896Z,3.60
2023-01-18T06:23:30.928Z,6.77
2023-01-18T06:25:58.945Z,2.47
2023-01-18T06:28:31.175Z,3.37
2023-01-18T06:30:59.279Z,4.60
2023-01-18T06:33:27.263Z,4.43
2023-01-18T06:35:56.470Z,7.13
2023-01-18T06:38:24.422Z,5.53
2023-01-18T06:40:52.266Z,5.00
2023-01-18T06:43:20.109Z,5.70
2023-01-18T06:45:53.423Z,3.70
2023-01-18T06:48:21.943Z,7.27
2023-01-18T06:50:52.299Z,3.67
2023-01-18T06:53:21.664Z,7.20
2023-01-18T06:56:01.677Z,5.70
2023-01-18T06:58:33.448Z,3.50
2023-01-18T07:01:02.170Z,4.17
2023-01-18T07:03:32.235Z,5.40
2023-01-18T07:06:02.808Z,3.27
2023-01-18T07:08:32.518Z,3.17
2023-01-18T07:11:04.890Z,2.73
2023-01-18T07:13:32.972Z,3.67
2023-01-18T07:16:01.964Z,3.77
2023-01-18T07:18:31.067Z,2.37
2023-01-18T07:21:00.391Z,5.03
2023-01-18T07:23:28.638Z,2.80
2023-01-18T07:26:03.787Z,2.83
2023-01-18T07:28:32.766Z,3.17
2023-01-18T07:31:00.959Z,3.67
2023-01-18T07:33:29.336Z,2.57
2023-01-18T07:35:58.799Z,2.17
2023-01-18T07:38:27.331Z,4.83
2023-01-18T07:41:02.113Z,2.43
2023-01-18T07:43:32.337Z,3.03
2023-01-18T07:46:00.784Z,2.20
2023-01-18T07:48:29.774Z,3.03
2023-01-18T07:50:59.095Z,5.37
2023-01-18T07:53:27.824Z,2.83
2023-01-18T07:55:59.650Z,6.07
2023-01-18T07:58:27.869Z,5.33
2023-01-18T08:01:02.546Z,8.43
2023-01-18T08:03:30.976Z,5.80
2023-01-18T08:05:59.826Z,8.87
2023-01-18T08:08:29.018Z,6.37
2023-01-18T08:10:57.709Z,16.03
2023-01-18T08:13:26.938Z,5.67
2023-01-18T08:15:55.467Z,3.77
2023-01-18T08:18:24.689Z,5.40
2023-01-18T08:20:55.041Z,3.87
2023-01-18T08:23:23.645Z,3.90
2023-01-18T08:25:51.919Z,2.70
2023-01-18T08:28:20.196Z,7.07
2023-01-18T08:30:49.259Z,2.43
2023-01-18T08:33:17.182Z,5.23
2023-01-18T08:35:47.823Z,3.73
2023-01-18T08:38:17.199Z,4.97
2023-01-18T08:40:45.081Z,6.87
2023-01-18T08:43:12.932Z,6.27
2023-01-18T08:45:40.752Z,6.57
2023-01-18T08:48:11.974Z,5.37
2023-01-18T08:50:40.077Z,5.57
2023-01-18T08:53:09.263Z,4.87
2023-01-18T08:55:38.268Z,6.27
2023-01-18T08:58:06.277Z,6.40
2023-01-18T09:00:34.419Z,3.57
2023-01-18T09:03:03.060Z,5.57
2023-01-18T09:05:31.856Z,4.43
2023-01-18T09:07:59.716Z,6.30
2023-01-18T09:10:28.866Z,12.27
2023-01-18T09:12:57.108Z,5.10
2023-01-18T09:15:25.955Z,4.97
2023-01-18T09:17:53.767Z,7.67
2023-01-18T09:20:21.591Z,4.03
2023-01-18T09:22:49.397Z,6.73
2023-01-18T09:25:18.367Z,6.03
2023-01-18T09:27:47.772Z,21.07
2023-01-18T09:30:16.946Z,8.30
2023-01-18T09:32:44.841Z,7.10
2023-01-18T09:35:17.902Z,5.73
2023-01-18T09:37:45.912Z,8.80
2023-01-18T09:40:17.364Z,8.47
2023-01-18T09:42:48.284Z,5.87
2023-01-18T09:45:29.082Z,4.13
2023-01-18T09:48:02.625Z,4.63
2023-01-18T09:50:32.732Z,4.60
2023-01-18T09:53:11.080Z,4.53
2023-01-18T09:55:48.078Z,5.93
2023-01-18T09:58:34.705Z,4.77
2023-01-18T10:01:06.049Z,4.57
2023-01-18T10:03:41.888Z,5.13
2023-01-18T10:06:16.863Z,6.60
2023-01-18T10:08:53.178Z,5.97
2023-01-18T10:11:28.718Z,6.40
2023-01-18T10:14:05.189Z,6.23
2023-01-18T10:16:35.249Z,4.17
2023-01-18T10:19:03.467Z,7.60
2023-01-18T10:21:43.824Z,5.33
2023-01-18T10:24:26.750Z,8.17
2023-01-18T10:27:03.628Z,5.70
2023-01-18T10:29:46.231Z,6.33
2023-01-18T10:32:19.114Z,5.63
2023-01-18T10:34:51.433Z,5.37
2023-01-18T10:37:29.187Z,7.03
2023-01-18T10:40:00.138Z,8.37
2023-01-18T10:42:35.108Z,8.73
2023-01-18T10:45:04.605Z,9.13
2023-01-18T10:47:33.964Z,7.00
2023-01-18T10:50:12.551Z,8.47
2023-01-18T10:52:40.502Z,7.03
2023-01-18T10:55:15.141Z,9.20
2023-01-18T10:57:46.952Z,5.83
2023-01-18T11:00:30.646Z,8.57
2023-01-18T11:03:00.463Z,10.03
2023-01-18T11:05:30.977Z,12.10
2023-01-18T11:08:12.603Z,7.87
2023-01-18T11:10:41.485Z,7.53
2023-01-18T11:13:27.179Z,8.70
2023-01-18T11:16:09.926Z,8.80
2023-01-18T11:18:37.888Z,11.60
2023-01-18T11:21:11.390Z,8.77
2023-01-18T11:23:45.969Z,10.00
2023-01-18T11:26:17.166Z,8.77
2023-01-18T11:28:51.218Z,11.53
2023-01-18T11:31:22.573Z,10.40
2023-01-18T11:33:52.923Z,10.93
2023-01-18T11:36:33.241Z,11.13
2023-01-18T11:39:20.310Z,14.50
2023-01-18T11:41:49.134Z,13.17
2023-01-18T11:44:23.634Z,13.20
2023-01-18T11:46:56.530Z,10.70
2023-01-18T11:49:38.668Z,10.63
2023-01-18T11:52:16.029Z,18.50
2023-01-18T11:54:49.252Z,16.67
2023-01-18T11:57:17.141Z,13.40
2023-01-18T11:59:46.203Z,9.97
2023-01-18T12:02:46.072Z,13.97
2023-01-18T12:05:28.042Z,14.53
2023-01-18T12:08:08.440Z,15.23
2023-01-18T12:10:46.135Z,13.53
2023-01-18T12:13:34.048Z,12.60
2023-01-18T12:16:13.280Z,17.63
2023-01-18T12:19:03.238Z,14.37
2023-01-18T12:21:41.581Z,13.97
2023-01-18T12:24:28.331Z,14.93
2023-01-18T12:26:59.442Z,14.33
2023-01-18T12:30:15.439Z,12.80
2023-01-18T12:33:09.639Z,15.37
2023-01-18T12:35:56.104Z,14.27
2023-01-18T12:38:27.176Z,12.23
2023-01-18T12:41:25.248Z,13.57
2023-01-18T12:44:09.980Z,12.47
2023-01-18T12:46:44.147Z,11.70
2023-01-18T12:49:18.990Z,11.60
2023-01-18T12:51:50.964Z,13.63
2023-01-18T12:54:27.110Z,13.07
2023-01-18T12:56:57.695Z,12.57
2023-01-18T12:59:30.532Z,13.67
2023-01-18T13:02:05.113Z,15.07
2023-01-18T13:04:37.231Z,11.43
2023-01-18T13:07:12.020Z,11.10
2023-01-18T13:09:43.747Z,14.50
2023-01-18T13:12:12.598Z,12.37
2023-01-18T13:14:44.963Z,10.40
2023-01-18T13:17:16.931Z,10.77
2023-01-18T13:19:51.375Z,9.77
2023-01-18T13:22:28.422Z,10.03
2023-01-18T13:25:28.227Z,10.83
2023-01-18T13:28:01.020Z,10.73
2023-01-18T13:30:31.569Z,11.93
2023-01-18T13:33:00.213Z,14.17
2023-01-18T13:35:33.217Z,11.80
2023-01-18T13:38:10.811Z,11.43
2023-01-18T13:40:42.112Z,16.80
2023-01-18T13:43:32.041Z,10.70
2023-01-18T13:46:02.895Z,8.47
2023-01-18T13:48:46.031Z,8.40
2023-01-18T13:51:53.069Z,8.87
2023-01-18T13:54:54.095Z,7.63
2023-01-18T13:57:24.643Z,9.43
2023-01-18T13:59:53.331Z,7.33
2023-01-18T14:02:27.564Z,7.53
2023-01-18T14:05:05.168Z,8.93
2023-01-18T14:07:41.345Z,10.43
2023-01-18T14:10:31.599Z,10.53
2023-01-18T14:13:03.417Z,11.37
2023-01-18T14:15:46.525Z,9.73
2023-01-18T14:18:21.706Z,8.97
2023-01-18T14:21:12.433Z,9.63
2023-01-18T14:24:19.903Z,10.30
2023-01-18T14:26:48.649Z,9.37
2023-01-18T14:29:28.163Z,7.80
2023-01-18T14:31:57.879Z,7.80
2023-01-18T14:34:41.310Z,8.90
2023-01-18T14:37:28.440Z,10.30
2023-01-18T14:40:08.706Z,9.03
2023-01-18T14:42:49.400Z,9.37
2023-01-18T14:45:30.322Z,5.47
2023-01-18T14:48:00.810Z,5.30
2023-01-18T14:50:34.288Z,7.43
2023-01-18T14:53:02.399Z,5.23
2023-01-18T14:55:32.977Z,9.17
2023-01-18T14:58:10.196Z,7.20
2023-01-18T15:00:46.106Z,6.10
2023-01-18T15:03:15.418Z,12.52
2023-01-18T15:05:43.577Z,10.83
2023-01-18T15:08:13.423Z,8.70
2023-01-18T15:10:41.473Z,15.37
2023-01-18T15:13:09.360Z,10.60
2023-01-18T15:15:42.118Z,7.00
2023-01-18T15:18:18.633Z,8.50
2023-01-18T15:20:57.164Z,5.60
2023-01-18T15:23:26.855Z,14.83
2023-01-18T15:25:56.618Z,7.30
2023-01-18T15:28:31.272Z,13.50
2023-01-18T15:30:59.209Z,8.10
2023-01-18T15:33:29.198Z,7.10
2023-01-18T15:36:01.040Z,4.90
2023-01-18T15:38:29.155Z,8.73
2023-01-18T15:41:02.355Z,4.90
2023-01-18T15:43:34.244Z,6.87
2023-01-18T15:46:03.179Z,6.90
2023-01-18T15:48:39.172Z,4.57
2023-01-18T15:51:09.385Z,4.93
2023-01-18T15:53:39.515Z,5.53
2023-01-18T15:56:09.691Z,8.57
2023-01-18T15:58:41.969Z,3.90
2023-01-18T16:01:17.726Z,5.13
2023-01-18T16:03:58.634Z,6.57
2023-01-18T16:06:32.684Z,3.93
2023-01-18T16:09:10.377Z,3.57
2023-01-18T16:11:47.515Z,5.43
2023-01-18T16:14:24.672Z,8.63
2023-01-18T16:16:55.037Z,9.80
2023-01-18T16:19:29.920Z,8.60
2023-01-18T16:22:00.437Z,7.50
2023-01-18T16:24:33.454Z,30.73
2023-01-18T16:27:10.289Z,6.90
2023-01-18T16:29:44.853Z,8.07
2023-01-18T16:32:28.993Z,11.20
2023-01-18T16:34:59.958Z,12.03
2023-01-18T16:37:28.134Z,9.90
2023-01-18T16:39:56.518Z,12.17
2023-01-18T16:42:36.954Z,9.03
2023-01-18T16:45:07.108Z,8.07
2023-01-18T16:47:34.991Z,8.30
2023-01-18T16:50:08.020Z,11.90
2023-01-18T16:52:35.917Z,11.13
2023-01-18T16:55:03.771Z,9.33
2023-01-18T16:57:32.780Z,9.77
2023-01-18T17:00:00.702Z,6.97
2023-01-18T17:02:28.657Z,9.23
2023-01-18T17:04:56.542Z,10.77
2023-01-18T17:07:25.717Z,15.83
2023-01-18T17:09:53.610Z,13.13
2023-01-18T17:12:21.445Z,11.33
2023-01-18T17:14:49.305Z,12.83
2023-01-18T17:17:17.236Z,22.57
2023-01-18T17:19:45.163Z,12.23
2023-01-18T17:22:13.033Z,10.73
2023-01-18T17:24:42.332Z,11.40
2023-01-18T17:27:14.607Z,9.87
2023-01-18T17:29:42.594Z,11.20
2023-01-18T17:32:12.024Z,25.40
2023-01-18T17:34:39.926Z,17.30
2023-01-18T17:37:08.837Z,27.37
2023-01-18T17:39:43.532Z,16.20
2023-01-18T17:42:29.820Z,13.97
2023-01-18T17:45:05.288Z,9.37
2023-01-18T17:47:35.332Z,10.60
2023-01-18T17:50:08.612Z,11.03
2023-01-18T17:52:37.436Z,9.17
2023-01-18T17:55:06.963Z,11.10
2023-01-18T17:57:36.370Z,10.30
2023-01-18T18:00:05.041Z,15.07
2023-01-18T18:02:35.800Z,23.03
2023-01-18T18:05:03.980Z,19.07
2023-01-18T18:07:31.976Z,17.70
2023-01-18T18:10:01.140Z,15.47
2023-01-18T18:12:29.558Z,15.10
2023-01-18T18:14:58.899Z,12.53
2023-01-18T18:17:28.162Z,12.53
2023-01-18T18:19:56.297Z,15.73
2023-01-18T18:22:24.500Z,13.30
2023-01-18T18:24:52.558Z,12.57
2023-01-18T18:27:21.857Z,12.43
2023-01-18T18:29:49.778Z,28.03
2023-01-18T18:32:18.971Z,16.83
2023-01-18T18:34:46.882Z,15.77
2023-01-18T18:37:16.115Z,15.03
2023-01-18T18:39:43.951Z,12.27
2023-01-18T18:42:11.810Z,11.10
2023-01-18T18:44:39.638Z,35.13
2023-01-18T18:47:09.907Z,36.23
2023-01-18T18:49:39.137Z,44.10
2023-01-18T18:52:07.036Z,40.03
2023-01-18T18:54:34.858Z,31.93
2023-01-18T18:57:03.610Z,36.27
2023-01-18T18:59:31.773Z,22.60
2023-01-18T19:01:59.646Z,22.33
2023-01-18T19:04:27.587Z,20.23
2023-01-18T19:06:56.765Z,21.03
2023-01-18T19:09:24.559Z,18.80
2023-01-18T19:11:55.513Z,19.70
2023-01-18T19:14:25.590Z,23.20
2023-01-18T19:16:54.055Z,69.93
2023-01-18T19:19:22.031Z,46.83
2023-01-18T19:21:49.972Z,27.37
2023-01-18T19:24:19.198Z,15.63
2023-01-18T19:26:47.084Z,15.60
2023-01-18T19:29:14.927Z,16.33
2023-01-18T19:31:42.760Z,11.80
2023-01-18T19:34:10.642Z,13.57
2023-01-18T19:36:38.491Z,15.20
2023-01-18T19:39:09.225Z,13.60
2023-01-18T19:41:44.247Z,11.47
2023-01-18T19:44:12.659Z,12.93
2023-01-18T19:46:40.492Z,11.53
2023-01-18T19:49:08.754Z,11.07
2023-01-18T19:51:40.160Z,10.83
2023-01-18T19:54:09.861Z,15.27
2023-01-18T19:56:37.849Z,17.77
2023-01-18T19:59:07.965Z,14.83
2023-01-18T20:01:37.362Z,15.03
2023-01-18T20:04:06.620Z,14.27
2023-01-18T20:06:35.188Z,15.50
2023-01-18T20:09:07.429Z,33.77
2023-01-18T20:11:38.013Z,28.30
2023-01-18T20:14:07.358Z,33.13
2023-01-18T20:16:35.388Z,33.87
2023-01-18T20:19:03.387Z,25.03
2023-01-18T20:21:31.323Z,27.97
2023-01-18T20:23:59.206Z,26.23
2023-01-18T20:26:35.772Z,25.13
2023-01-18T20:29:07.496Z,33.17
2023-01-18T20:31:36.159Z,31.30
2023-01-18T20:34:04.670Z,23.27
2023-01-18T20:36:34.639Z,22.30
2023-01-18T20:39:02.712Z,31.80
2023-01-18T20:41:30.542Z,39.10
2023-01-18T20:43:58.453Z,19.37
2023-01-18T20:46:27.626Z,20.40
2023-01-18T20:48:55.596Z,19.03
2023-01-18T20:51:23.513Z,15.37
2023-01-18T20:53:51.391Z,12.73
2023-01-18T20:56:34.334Z,14.83
2023-01-18T20:59:02.152Z,18.63
2023-01-18T21:01:32.932Z,16.10
2023-01-18T21:04:02.299Z,13.20
2023-01-18T21:06:30.364Z,14.47
2023-01-18T21:08:59.791Z,15.00
2023-01-18T21:11:28.197Z,14.93
2023-01-18T21:13:58.931Z,17.50
2023-01-18T21:16:27.567Z,17.30
2023-01-18T21:18:58.988Z,16.53
2023-01-18T21:21:29.172Z,15.87
2023-01-18T21:23:57.103Z,14.60
2023-01-18T21:26:25.134Z,18.47
2023-01-18T21:28:53.158Z,17.10
2023-01-18T21:31:21.469Z,14.50
2023-01-18T21:33:49.421Z,13.10
2023-01-18T21:36:20.000Z,11.13
2023-01-18T21:38:47.858Z,12.70
2023-01-18T21:41:33.595Z,11.17
2023-01-18T21:44:19.071Z,13.37
2023-01-18T21:46:47.387Z,17.23
2023-01-18T21:49:41.144Z,15.80
2023-01-18T21:52:34.324Z,13.97
2023-01-18T21:55:02.124Z,14.13
2023-01-18T21:57:29.950Z,14.33
2023-01-18T21:59:57.877Z,16.93
2023-01-18T22:02:25.863Z,16.10
2023-01-18T22:04:59.961Z,13.07
2023-01-18T22:07:30.019Z,13.50
2023-01-18T22:10:05.163Z,11.90
2023-01-18T22:12:35.457Z,12.13
2023-01-18T22:15:04.609Z,12.10
2023-01-18T22:17:32.709Z,11.87
2023-01-18T22:20:01.674Z,10.63
2023-01-18T22:22:31.003Z,11.83
2023-01-18T22:25:00.101Z,9.10
2023-01-18T22:27:28.052Z,12.57
2023-01-18T22:29:55.939Z,13.30
2023-01-18T22:32:23.771Z,10.90
2023-01-18T22:34:51.649Z,12.67
2023-01-18T22:37:19.698Z,12.20
2023-01-18T22:39:48.856Z,11.83
2023-01-18T22:42:16.730Z,12.27
2023-01-18T22:44:44.531Z,11.87
2023-01-18T22:47:12.365Z,13.57
2023-01-18T22:49:40.198Z,10.57
2023-01-18T22:52:08.027Z,10.00
2023-01-18T22:54:36.285Z,9.37
2023-01-18T22:57:05.594Z,9.40
2023-01-18T22:59:33.526Z,11.20
